Time;durP1;ratioP1;P1;durP2;ratioP2;P2;SDS_P1;SDS_P2;PMS_P1;PMS_P2;Temp;Humidity;BMP_temperature;BMP_pressure;BME280_temperature;BME280_humidity;BME280_pressure;Samples;Min_cycle;Max_cycle;Signal;HPM_P1;HPM_P2
2023/11/08 00:01:31;;;;;;;9.68;3.22;;;;;;;13.84;72.86;101077.88;5009208;28;20153;-44
2023/11/08 00:03:56;;;;;;;10.43;3.85;;;;;;;13.81;73.08;101081.34;5009545;28;20599;-44
2023/11/08 00:06:21;;;;;;;7.38;3.25;;;;;;;13.80;72.96;101076.97;5008581;28;20045;-46
2023/11/08 00:08:51;;;;;;;10.50;3.90;;;;;;;13.58;73.99;101073.41;5009646;28;20034;-47
2023/11/08 00:11:17;;;;;;;7.13;3.20;;;;;;;13.87;73.13;101075.25;5009196;28;20500;-45
2023/11/08 00:13:43;;;;;;;9.40;3.60;;;;;;;13.88;73.15;101077.00;5009645;28;20447;-49
2023/11/08 00:16:08;;;;;;;8.35;3.30;;;;;;;13.89;73.20;101082.25;5009469;28;20045;-45
2023/11/08 00:18:33;;;;;;;7.55;3.05;;;;;;;13.88;72.87;101079.63;5009370;28;20377;-44
2023/11/08 00:21:00;;;;;;;12.82;3.10;;;;;;;13.69;73.78;101084.81;5009890;28;20037;-46
2023/11/08 00:23:25;;;;;;;14.80;3.30;;;;;;;13.69;73.84;101089.16;5009329;28;20038;-45
2023/11/08 00:25:51;;;;;;;9.13;2.90;;;;;;;13.93;73.11;101084.00;5009891;28;20140;-44
2023/11/08 00:28:16;;;;;;;8.75;3.15;;;;;;;13.86;72.75;101082.25;5009420;28;20542;-44
2023/11/08 00:30:41;;;;;;;12.10;2.90;;;;;;;13.85;72.83;101082.22;4992150;28;20046;-44
2023/11/08 00:33:07;;;;;;;10.73;2.88;;;;;;;13.64;72.88;101078.69;5009474;28;20105;-44
2023/11/08 00:35:32;;;;;;;10.55;2.65;;;;;;;13.71;72.81;101087.44;5008979;28;20388;-47
2023/11/08 00:37:58;;;;;;;9.75;2.60;;;;;;;13.61;73.18;101090.88;5009617;28;20072;-44
2023/11/08 00:40:24;;;;;;;10.13;2.80;;;;;;;12.96;76.02;101089.59;4995970;28;20050;-43
2023/11/08 00:42:49;;;;;;;7.82;2.75;;;;;;;12.83;77.39;101103.47;4989878;28;20034;-44
2023/11/08 00:45:14;;;;;;;9.70;2.85;;;;;;;13.02;76.85;101100.13;4996003;28;20073;-44
2023/11/08 00:47:40;;;;;;;7.60;2.50;;;;;;;13.09;76.04;101101.03;5009769;28;20044;-45
2023/11/08 00:50:06;;;;;;;6.07;2.30;;;;;;;13.07;76.02;101101.88;5009343;28;20435;-45
2023/11/08 00:52:31;;;;;;;5.93;2.50;;;;;;;13.21;75.25;101100.28;5008807;28;20133;-48
2023/11/08 00:54:57;;;;;;;6.22;2.20;;;;;;;13.48;73.89;101096.94;5008981;28;20120;-45
2023/11/08 00:57:22;;;;;;;10.95;2.65;;;;;;;13.67;73.13;101104.88;5008473;28;20038;-45
2023/11/08 00:59:47;;;;;;;8.75;2.70;;;;;;;13.66;72.83;101102.28;5009084;28;20098;-44
2023/11/08 01:02:12;;;;;;;12.02;2.60;;;;;;;13.59;72.64;101106.59;5008923;28;20042;-45
2023/11/08 01:04:38;;;;;;;9.93;2.60;;;;;;;13.65;72.46;101111.88;5009257;28;20160;-45
2023/11/08 01:07:04;;;;;;;10.80;2.40;;;;;;;13.55;72.25;101115.28;5009367;28;20038;-49
2023/11/08 01:09:31;;;;;;;4.95;2.25;;;;;;;13.58;72.68;101117.94;5009122;28;20086;-48
2023/11/08 01:11:58;;;;;;;12.40;2.72;;;;;;;13.21;74.19;101131.69;5009886;28;20037;-44
2023/11/08 01:14:24;;;;;;;7.00;2.60;;;;;;;12.97;75.51;101130.63;5010563;28;20066;-46
2023/11/08 01:16:49;;;;;;;6.10;2.63;;;;;;;12.99;76.01;101131.47;5011608;28;20544;-48
2023/11/08 01:19:15;;;;;;;6.85;2.67;;;;;;;12.85;76.65;101129.66;5012364;28;20037;-46
2023/11/08 01:21:45;;;;;;;10.25;3.20;;;;;;;12.96;75.93;101133.22;5011586;28;20048;-45
2023/11/08 01:24:12;;;;;;;7.18;2.80;;;;;;;13.02;76.18;101138.50;5012811;28;20060;-45
2023/11/08 01:26:38;;;;;;;10.90;3.42;;;;;;;12.95;76.53;101137.56;5011709;28;20065;-44
2023/11/08 01:29:03;;;;;;;9.90;3.60;;;;;;;12.94;76.84;101143.66;5012875;28;20065;-46
2023/11/08 01:31:29;;;;;;;6.47;3.40;;;;;;;12.93;76.39;101141.03;5013049;28;20387;-46
2023/11/08 01:33:55;;;;;;;14.63;3.90;;;;;;;12.99;75.96;101139.34;5013025;28;20399;-49
2023/11/08 01:36:20;;;;;;;11.52;4.47;;;;;;;12.94;75.97;101140.16;5011738;28;20038;-42
2023/11/08 01:38:46;;;;;;;13.63;4.93;;;;;;;12.86;76.73;101142.75;5012536;28;20040;-44
2023/11/08 01:41:11;;;;;;;13.75;4.95;;;;;;;12.75;76.71;101143.50;5012660;28;20044;-48
2023/11/08 01:43:38;;;;;;;9.93;4.78;;;;;;;12.82;76.61;101142.69;5011973;28;20088;-46
2023/11/08 01:46:22;;;;;;;12.27;4.90;;;;;;;12.75;76.62;101139.13;5011996;28;20038;-44
2023/11/08 01:48:49;;;;;;;11.60;4.75;;;;;;;12.77;76.42;101142.66;5012186;28;20042;-50
2023/11/08 01:51:15;;;;;;;12.30;5.15;;;;;;;12.68;76.37;101144.31;5011936;28;20412;-45
2023/11/08 01:53:42;;;;;;;10.07;4.63;;;;;;;12.69;76.08;101149.53;5011997;28;20038;-47
2023/11/08 01:56:10;;;;;;;13.88;4.32;;;;;;;12.59;76.56;101145.09;5012074;28;20060;-48
2023/11/08 01:58:39;;;;;;;11.07;4.30;;;;;;;12.53;76.43;101148.53;5011742;28;20030;-45
2023/11/08 02:01:08;;;;;;;13.02;4.13;;;;;;;12.53;76.21;101145.94;5012657;28;20041;-45
2023/11/08 02:03:37;;;;;;;12.38;4.10;;;;;;;12.58;76.04;101144.22;5011699;28;20185;-44
2023/11/08 02:06:04;;;;;;;9.80;3.92;;;;;;;12.54;76.32;101152.91;5011985;28;20072;-44
2023/11/08 02:08:31;;;;;;;9.07;3.58;;;;;;;12.54;76.60;101141.56;5011374;28;20069;-45
2023/11/08 02:10:58;;;;;;;11.57;3.78;;;;;;;12.26;78.20;101156.09;5012403;28;20041;-44
2023/11/08 02:13:24;;;;;;;9.90;3.55;;;;;;;12.46;77.39;101153.69;5011661;28;20040;-45
2023/11/08 02:15:49;;;;;;;8.98;3.08;;;;;;;12.46;77.56;101148.47;5012013;28;20056;-45
2023/11/08 02:18:18;;;;;;;13.05;3.20;;;;;;;12.49;77.81;101146.78;5011347;28;20493;-54
2023/11/08 02:20:44;;;;;;;12.32;3.22;;;;;;;12.59;77.27;101148.59;5011830;28;20045;-44
2023/11/08 02:23:09;;;;;;;12.15;3.40;;;;;;;12.52;77.88;101148.53;5011563;28;20029;-44
2023/11/08 02:25:35;;;;;;;8.98;3.08;;;;;;;12.57;77.13;101145.09;5010918;28;20030;-44
2023/11/08 02:28:00;;;;;;;11.00;3.47;;;;;;;12.47;77.44;101145.88;5011630;28;20066;-44
2023/11/08 02:30:25;;;;;;;9.98;3.35;;;;;;;12.52;77.67;101145.91;5011045;28;20054;-45
2023/11/08 02:32:52;;;;;;;11.80;3.78;;;;;;;12.45;78.47;101155.41;5012075;28;20100;-48
2023/11/08 02:35:17;;;;;;;10.13;3.65;;;;;;;12.62;77.60;101149.50;5010626;28;20034;-46
2023/11/08 02:37:44;;;;;;;11.52;3.60;;;;;;;12.55;77.96;101149.44;5011023;28;20160;-47
2023/11/08 02:40:10;;;;;;;9.40;3.20;;;;;;;12.66;77.55;101146.91;5011091;28;20527;-45
2023/11/08 02:42:46;;;;;;;17.27;4.10;;;;;;;12.65;77.78;101147.78;5010761;28;20029;-45
2023/11/08 02:45:13;;;;;;;11.35;4.07;;;;;;;12.56;78.37;101147.72;5010807;28;20148;-45
2023/11/08 02:47:39;;;;;;;14.82;4.40;;;;;;;12.46;79.28;101154.56;5010996;28;20080;-47
2023/11/08 02:50:06;;;;;;;13.10;4.15;;;;;;;12.64;78.80;101143.41;5010839;28;20436;-48
2023/11/08 02:52:32;;;;;;;10.63;4.07;;;;;;;12.66;78.66;101151.28;5010675;28;20042;-45
2023/11/08 02:54:58;;;;;;;12.63;4.38;;;;;;;12.66;78.77;101152.16;4993103;28;20034;-44
2023/11/08 02:57:23;;;;;;;13.40;4.53;;;;;;;12.65;78.61;101136.44;5010130;28;20566;-47
2023/11/08 02:59:49;;;;;;;11.38;4.55;;;;;;;12.77;77.53;101141.78;5010750;28;20119;-45
2023/11/08 03:02:14;;;;;;;14.90;4.60;;;;;;;12.63;77.89;101140.75;5010200;28;20109;-45
2023/11/08 03:04:41;;;;;;;13.38;4.70;;;;;;;12.36;79.26;101149.25;5010731;28;20104;-44
2023/11/08 03:07:06;;;;;;;11.60;4.57;;;;;;;12.48;78.18;101144.13;5010412;28;20030;-49
2023/11/08 03:09:32;;;;;;;11.85;4.40;;;;;;;12.31;78.63;101143.09;5010154;28;20048;-46
2023/11/08 03:11:58;;;;;;;12.82;4.70;;;;;;;12.33;78.86;101134.38;5010659;28;20034;-49
2023/11/08 03:14:27;;;;;;;10.77;4.07;;;;;;;12.52;78.52;101138.06;5009965;28;20038;-48
2023/11/08 03:16:54;;;;;;;14.85;4.80;;;;;;;12.50;78.05;101148.50;5010354;28;20077;-46
2023/11/08 03:19:21;;;;;;;12.43;4.07;;;;;;;12.62;77.92;101147.75;5010340;28;20045;-45
2023/11/08 03:21:48;;;;;;;15.07;4.60;;;;;;;12.64;77.97;101146.03;5011024;28;20038;-44
2023/11/08 03:24:13;;;;;;;10.82;4.30;;;;;;;12.65;77.93;101139.94;5010323;28;20089;-44
2023/11/08 03:26:38;;;;;;;20.67;4.90;;;;;;;12.58;78.24;101140.72;5010126;28;20039;-47
2023/11/08 03:29:04;;;;;;;13.98;4.50;;;;;;;12.59;78.03;101140.75;5010272;28;20030;-47
2023/11/08 03:31:31;;;;;;;14.50;4.60;;;;;;;12.49;77.97;101138.94;5009813;28;20049;-46
2023/11/08 03:33:58;;;;;;;13.45;4.80;;;;;;;12.40;78.94;101137.94;5010240;28;20413;-45
2023/11/08 03:36:28;;;;;;;13.93;4.68;;;;;;;12.62;78.66;101141.66;5009468;28;20038;-44
2023/11/08 03:38:54;;;;;;;15.60;4.50;;;;;;;12.59;78.19;101142.50;5010236;28;20137;-44
2023/11/08 03:41:21;;;;;;;13.65;4.35;;;;;;;12.67;77.96;101135.59;5009040;28;20133;-46
2023/11/08 03:43:46;;;;;;;11.65;4.40;;;;;;;12.53;78.42;101143.31;5010140;28;20116;-45
2023/11/08 03:46:11;;;;;;;11.23;4.72;;;;;;;12.58;78.43;101140.72;4991718;28;20457;-46
2023/11/08 03:48:37;;;;;;;21.50;5.32;;;;;;;12.29;78.97;101139.56;5009601;28;20081;-47
2023/11/08 03:51:03;;;;;;;18.75;5.00;;;;;;;12.50;78.83;101142.41;5009968;28;20042;-45
2023/11/08 03:53:28;;;;;;;13.10;4.78;;;;;;;12.60;77.83;101139.00;5009912;28;20120;-45
2023/11/08 03:55:54;;;;;;;14.85;5.10;;;;;;;12.46;78.18;101138.88;5010594;28;20480;-43
2023/11/08 03:58:19;;;;;;;16.95;5.35;;;;;;;12.03;79.40;101141.88;5010244;28;20380;-49
2023/11/08 04:00:44;;;;;;;12.95;5.30;;;;;;;12.46;78.35;101146.72;5011091;28;20058;-49
2023/11/08 04:03:10;;;;;;;18.50;5.47;;;;;;;12.35;78.82;101148.34;5009970;28;20041;-48
2023/11/08 04:05:35;;;;;;;13.27;4.68;;;;;;;12.36;79.06;101149.25;5009749;28;20080;-44
2023/11/08 04:08:00;;;;;;;14.40;4.95;;;;;;;12.39;78.55;101155.34;5010984;28;20064;-44
2023/11/08 04:10:26;;;;;;;16.20;4.93;;;;;;;12.41;78.79;101147.53;5010489;28;20054;-47
2023/11/08 04:12:51;;;;;;;13.73;4.35;;;;;;;12.36;78.65;101150.13;5010981;28;20109;-44
2023/11/08 04:15:17;;;;;;;13.32;4.10;;;;;;;12.36;78.30;101144.88;5009672;28;20471;-45
2023/11/08 04:17:43;;;;;;;11.70;4.30;;;;;;;12.41;78.21;101158.88;5010331;28;20121;-49
2023/11/08 04:20:09;;;;;;;14.05;4.50;;;;;;;12.25;78.21;101162.19;5010961;28;20125;-46
2023/11/08 04:22:35;;;;;;;15.85;4.85;;;;;;;12.36;78.65;101159.69;5010175;28;20084;-43
2023/11/08 04:25:01;;;;;;;13.85;4.53;;;;;;;12.34;78.36;101164.00;5011034;28;20035;-47
2023/11/08 04:27:26;;;;;;;12.75;4.47;;;;;;;12.30;78.52;101162.25;4993107;28;20042;-46
2023/11/08 04:29:51;;;;;;;22.35;6.07;;;;;;;11.81;80.16;101171.22;5016304;28;20397;-49
2023/11/08 04:32:17;;;;;;;13.50;5.30;;;;;;;12.31;79.29;101164.00;5018429;28;20408;-48
2023/11/08 04:34:42;;;;;;;14.15;5.95;;;;;;;12.12;79.95;101165.53;5018962;28;20033;-45
2023/11/08 04:37:09;;;;;;;15.82;6.43;;;;;;;12.41;78.79;101176.31;5021972;28;20030;-46
2023/11/08 04:39:35;;;;;;;18.38;6.38;;;;;;;12.50;78.13;101173.81;5013342;28;20049;-49
2023/11/08 04:42:00;;;;;;;18.92;6.45;;;;;;;12.38;78.44;101176.28;5009631;28;20116;-45
2023/11/08 04:44:26;;;;;;;18.33;6.70;;;;;;;12.42;78.34;101181.56;5008791;28;20037;-45
2023/11/08 04:46:52;;;;;;;16.90;7.00;;;;;;;11.99;79.06;101179.31;5008863;28;20038;-46
2023/11/08 04:49:17;;;;;;;15.38;6.85;;;;;;;12.20;79.46;101179.53;5008666;28;20041;-45
2023/11/08 04:51:42;;;;;;;17.08;6.78;;;;;;;12.36;78.18;101176.25;5009449;28;20338;-45
2023/11/08 04:54:08;;;;;;;14.70;6.10;;;;;;;12.17;78.63;101182.13;5011926;28;20049;-51
2023/11/08 04:56:33;;;;;;;13.13;5.50;;;;;;;12.26;78.23;101179.59;5012639;28;20038;-44
2023/11/08 04:58:58;;;;;;;17.00;5.75;;;;;;;12.33;78.12;101184.06;5013125;28;20038;-45
2023/11/08 05:01:24;;;;;;;20.83;6.57;;;;;;;12.35;77.77;101176.22;5012512;28;20110;-48
2023/11/08 05:03:49;;;;;;;11.15;4.68;;;;;;;12.11;78.71;101169.00;5012692;28;20064;-44
2023/11/08 05:06:14;;;;;;;11.82;4.15;;;;;;;12.33;77.65;101168.38;5012382;28;20411;-45
2023/11/08 05:08:40;;;;;;;15.43;3.65;;;;;;;12.24;77.54;101163.06;5012479;28;20058;-44
2023/11/08 05:11:05;;;;;;;12.25;4.00;;;;;;;12.03;78.48;101174.13;5012876;28;20038;-44
2023/11/08 05:13:31;;;;;;;13.68;3.53;;;;;;;12.07;78.14;101168.09;5012532;28;20026;-47
2023/11/08 05:15:56;;;;;;;14.90;3.70;;;;;;;12.14;78.09;101171.63;5012813;28;20038;-47
2023/11/08 05:18:22;;;;;;;12.45;3.30;;;;;;;12.17;77.90;101176.91;5012362;28;20033;-45
2023/11/08 05:20:47;;;;;;;7.38;3.38;;;;;;;12.09;78.07;101184.66;5012856;28;20042;-47
2023/11/08 05:23:12;;;;;;;15.35;3.53;;;;;;;12.15;77.74;101178.63;5012501;28;20034;-48
2023/11/08 05:25:40;;;;;;;11.13;3.05;;;;;;;12.15;77.50;101181.22;5012950;28;20040;-43
2023/11/08 05:28:06;;;;;;;10.82;3.17;;;;;;;12.09;77.59;101184.66;5012734;28;20558;-47
2023/11/08 05:30:32;;;;;;;13.15;3.20;;;;;;;11.99;77.91;101172.34;5013020;28;20412;-49
2023/11/08 05:32:57;;;;;;;12.73;2.83;;;;;;;11.90;77.93;101177.44;5012701;28;20029;-44
2023/11/08 05:35:22;;;;;;;13.57;2.80;;;;;;;11.98;77.40;101175.81;5012000;28;20037;-44
2023/11/08 05:37:48;;;;;;;13.80;2.50;;;;;;;12.00;77.17;101168.88;5012315;28;20034;-50
2023/11/08 05:40:14;;;;;;;8.85;3.00;;;;;;;11.92;77.46;101170.50;5011862;28;20184;-48
2023/11/08 05:42:41;;;;;;;6.95;2.60;;;;;;;11.83;77.71;101164.31;5012227;28;20034;-48
2023/11/08 05:45:07;;;;;;;10.82;2.40;;;;;;;11.96;78.12;101168.78;5011951;28;20056;-47
2023/11/08 05:47:32;;;;;;;9.80;2.40;;;;;;;11.98;77.61;101169.69;4994024;28;20049;-48
2023/11/08 05:49:58;;;;;;;9.63;2.33;;;;;;;11.91;77.76;101168.75;5012074;28;20038;-47
2023/11/08 05:52:24;;;;;;;12.30;2.38;;;;;;;11.93;77.53;101167.03;4994198;28;20072;-45
2023/11/08 05:54:49;;;;;;;10.95;2.20;;;;;;;11.85;78.13;101159.94;5011771;28;20034;-46
2023/11/08 05:57:14;;;;;;;8.75;2.17;;;;;;;11.88;78.10;101157.41;5011391;28;20037;-46
2023/11/08 05:59:43;;;;;;;13.27;2.67;;;;;;;12.06;77.59;101155.00;5012008;28;20040;-47
2023/11/08 06:02:09;;;;;;;7.70;2.20;;;;;;;11.97;77.44;101165.31;5011812;28;20492;-47
2023/11/08 06:04:34;;;;;;;9.82;2.65;;;;;;;12.09;76.98;101155.03;5010831;28;20113;-44
2023/11/08 06:07:00;;;;;;;9.60;2.10;;;;;;;12.27;76.83;101160.47;5011630;28;20095;-48
2023/11/08 06:09:25;;;;;;;6.32;2.05;;;;;;;12.15;77.18;101155.97;5011069;28;20030;-47
2023/11/08 06:11:51;;;;;;;9.38;2.10;;;;;;;12.18;77.46;101153.41;5011591;28;20041;-44
2023/11/08 06:14:16;;;;;;;8.70;2.03;;;;;;;12.23;76.60;101150.84;5011035;28;20042;-47
2023/11/08 06:16:42;;;;;;;11.95;2.08;;;;;;;12.18;76.69;101147.31;5011297;28;20025;-49
2023/11/08 06:19:08;;;;;;;7.80;1.83;;;;;;;12.34;75.51;101150.94;5011407;28;20037;-46
2023/11/08 06:21:33;;;;;;;7.95;1.95;;;;;;;12.42;75.01;101162.38;5011024;28;20424;-48
2023/11/08 06:23:59;;;;;;;6.80;1.90;;;;;;;12.38;74.95;101158.81;5011651;28;20489;-45
2023/11/08 06:26:25;;;;;;;9.13;2.00;;;;;;;12.19;75.74;101162.13;5010796;28;20041;-46
2023/11/08 06:28:50;;;;;;;8.15;1.90;;;;;;;12.10;76.46;101162.00;5011132;28;20037;-51
2023/11/08 06:31:16;;;;;;;8.43;2.13;;;;;;;12.10;76.02;101167.25;5011136;28;20501;-46
2023/11/08 06:33:41;;;;;;;9.73;1.90;;;;;;;12.13;76.12;101167.28;5011347;28;20034;-45
2023/11/08 06:36:06;;;;;;;10.57;2.08;;;;;;;12.09;76.12;101174.19;5011002;28;20115;-45
2023/11/08 06:38:32;;;;;;;7.95;2.33;;;;;;;12.03;76.37;101173.25;5010619;28;20046;-46
2023/11/08 06:40:57;;;;;;;7.10;1.90;;;;;;;11.88;76.66;101178.28;5011173;28;20025;-45
2023/11/08 06:43:23;;;;;;;6.97;1.95;;;;;;;12.00;76.30;101181.94;5010745;28;20099;-46
2023/11/08 06:45:49;;;;;;;10.30;1.90;;;;;;;11.90;76.13;101177.44;5011322;28;20045;-43
2023/11/08 06:48:15;;;;;;;9.57;2.20;;;;;;;11.95;76.46;101182.75;5010343;28;20042;-47
2023/11/08 06:50:40;;;;;;;7.30;1.98;;;;;;;11.92;76.14;101174.84;5010706;28;20025;-46
2023/11/08 06:53:06;;;;;;;6.68;1.90;;;;;;;11.94;76.16;101168.81;5010816;28;20546;-48
2023/11/08 06:55:33;;;;;;;4.63;1.83;;;;;;;11.95;76.02;101165.34;5010291;28;20030;-46
2023/11/08 06:58:00;;;;;;;7.13;1.80;;;;;;;11.95;76.04;101167.06;5010566;28;20030;-48
2023/11/08 07:00:26;;;;;;;4.38;1.80;;;;;;;11.92;75.83;101167.00;5010589;28;20068;-47
2023/11/08 07:02:51;;;;;;;7.15;1.92;;;;;;;11.74;76.20;101168.53;5010930;28;20074;-44
2023/11/08 07:05:17;;;;;;;5.07;1.60;;;;;;;11.92;75.63;101167.00;5010323;28;20411;-47
2023/11/08 07:07:43;;;;;;;4.72;1.85;;;;;;;12.12;75.22;101175.97;5010498;28;20060;-46
2023/11/08 07:10:11;;;;;;;9.45;2.00;;;;;;;12.05;74.96;101167.19;5010375;28;20046;-46
2023/11/08 07:12:40;;;;;;;5.32;1.60;;;;;;;11.85;75.85;101163.44;5009631;28;20070;-45
2023/11/08 07:15:07;;;;;;;7.45;1.90;;;;;;;12.02;75.37;101158.41;5009957;28;20037;-44
2023/11/08 07:17:34;;;;;;;6.75;1.70;;;;;;;12.15;74.92;101168.16;5009474;28;20038;-47
2023/11/08 07:20:00;;;;;;;5.25;1.80;;;;;;;12.14;74.67;101172.50;5010797;28;20042;-46
2023/11/08 07:22:25;;;;;;;4.95;1.80;;;;;;;12.28;75.12;101172.66;5009768;28;20037;-45
2023/11/08 07:24:51;;;;;;;5.40;1.80;;;;;;;12.25;74.76;101179.63;5010349;28;20130;-47
2023/11/08 07:27:17;;;;;;;4.90;1.80;;;;;;;12.31;74.11;101166.63;5010283;28;20057;-44
2023/11/08 07:29:43;;;;;;;4.22;1.90;;;;;;;12.28;74.60;101163.94;5011316;28;20072;-44
2023/11/08 07:32:12;;;;;;;6.43;2.03;;;;;;;12.32;74.36;101164.00;5012482;28;20088;-46
2023/11/08 07:34:37;;;;;;;4.63;1.90;;;;;;;12.60;73.47;101170.41;5012731;28;20030;-44
2023/11/08 07:37:03;;;;;;;4.03;1.80;;;;;;;12.56;73.09;101172.09;5012077;28;20412;-50
2023/11/08 07:39:28;;;;;;;7.75;1.80;;;;;;;12.15;74.11;101173.38;5012860;28;20390;-45
2023/11/08 07:41:54;;;;;;;4.32;1.60;;;;;;;12.39;73.33;101173.66;5028001;28;20049;-55
2023/11/08 07:44:19;;;;;;;6.28;1.80;;;;;;;12.33;72.98;101173.59;5029009;28;20048;-49
2023/11/08 07:46:45;;;;;;;3.72;1.60;;;;;;;12.30;73.07;101176.19;5026055;28;20069;-45
2023/11/08 07:49:10;;;;;;;5.15;1.48;;;;;;;12.48;72.72;101184.22;5010409;28;20048;-48
2023/11/08 07:51:36;;;;;;;4.47;2.03;;;;;;;12.51;72.73;101175.53;5009631;28;20026;-47
2023/11/08 07:54:01;;;;;;;6.38;1.88;;;;;;;12.83;71.10;101176.72;5009979;28;20508;-46
2023/11/08 07:56:26;;;;;;;4.00;1.60;;;;;;;12.92;71.04;101174.19;5009017;28;20088;-49
2023/11/08 07:58:55;;;;;;;5.43;1.80;;;;;;;12.75;71.38;101180.13;5009774;28;20113;-47
2023/11/08 08:01:20;;;;;;;3.15;1.65;;;;;;;12.68;72.05;101180.94;5009319;28;20034;-47
2023/11/08 08:03:46;;;;;;;5.88;1.80;;;;;;;12.85;71.95;101184.59;5009701;28;20382;-45
2023/11/08 08:06:11;;;;;;;6.90;2.00;;;;;;;12.82;71.80;101180.19;5009810;28;20038;-46
2023/11/08 08:08:36;;;;;;;4.80;1.95;;;;;;;13.01;71.32;101176.88;5009148;28;20133;-50
2023/11/08 08:11:03;;;;;;;9.02;2.00;;;;;;;12.95;71.03;101175.94;5009788;28;20121;-44
2023/11/08 08:13:28;;;;;;;4.50;1.83;;;;;;;12.92;71.16;101168.09;5008941;28;20050;-48
2023/11/08 08:15:54;;;;;;;4.75;2.00;;;;;;;12.83;71.38;101170.59;5009296;28;20042;-45
2023/11/08 08:18:19;;;;;;;9.10;2.33;;;;;;;13.07;70.96;101160.34;5008983;28;20388;-48
2023/11/08 08:20:45;;;;;;;7.50;2.15;;;;;;;12.68;71.72;101157.41;4992367;28;20090;-45
2023/11/08 08:23:10;;;;;;;5.10;1.90;;;;;;;13.47;70.12;101160.66;5010230;28;20084;-46
2023/11/08 08:25:38;;;;;;;5.53;1.95;;;;;;;13.37;69.98;101160.59;4991849;28;20113;-45
2023/11/08 08:28:03;;;;;;;6.03;2.10;;;;;;;13.65;68.44;101166.91;5012525;28;20503;-46
2023/11/08 08:30:29;;;;;;;5.03;2.10;;;;;;;13.47;69.11;101166.78;4995587;28;20046;-46
2023/11/08 08:32:57;;;;;;;5.82;2.20;;;;;;;13.83;68.19;101155.63;5013491;28;20386;-48
2023/11/08 08:35:23;;;;;;;6.22;2.40;;;;;;;13.92;67.42;101166.13;5012844;28;20037;-50
2023/11/08 08:37:48;;;;;;;4.85;2.25;;;;;;;13.95;67.63;101162.66;5013129;28;20041;-47
2023/11/08 08:40:13;;;;;;;7.63;2.45;;;;;;;13.82;67.92;101159.09;5012884;28;20362;-44
2023/11/08 08:42:43;;;;;;;8.95;2.55;;;;;;;14.08;67.10;101153.97;5013254;28;20100;-46
2023/11/08 08:45:09;;;;;;;7.38;2.63;;;;;;;14.17;66.93;101154.88;5013181;28;20038;-49
2023/11/08 08:47:36;;;;;;;5.22;2.42;;;;;;;13.68;67.92;101153.78;5012395;28;20065;-47
2023/11/08 08:50:02;;;;;;;7.65;2.47;;;;;;;13.71;67.57;101159.06;5013078;28;20124;-46
2023/11/08 08:52:27;;;;;;;7.93;2.65;;;;;;;13.83;67.35;101153.00;5012503;28;20125;-46
2023/11/08 08:54:52;;;;;;;7.22;2.45;;;;;;;13.94;67.27;101153.03;5012962;28;20034;-50
2023/11/08 08:57:18;;;;;;;7.95;2.70;;;;;;;14.05;66.92;101156.56;5012351;28;20435;-48
2023/11/08 08:59:43;;;;;;;7.45;2.63;;;;;;;13.76;67.66;101154.72;5013113;28;20042;-46
2023/11/08 09:02:11;;;;;;;8.07;2.55;;;;;;;13.76;66.83;101157.34;5013158;28;20484;-47
2023/11/08 09:04:37;;;;;;;7.15;2.63;;;;;;;14.00;66.81;101169.66;5012578;28;20037;-46
2023/11/08 09:07:03;;;;;;;7.80;2.80;;;;;;;13.71;67.33;101156.44;5012605;28;20535;-44
2023/11/08 09:09:29;;;;;;;9.57;2.75;;;;;;;14.18;66.41;101155.75;5012190;28;20084;-48
2023/11/08 09:11:55;;;;;;;7.25;2.63;;;;;;;13.82;67.04;101148.63;5012998;28;20042;-47
2023/11/08 09:14:20;;;;;;;8.02;3.00;;;;;;;14.29;66.19;101161.03;5012163;28;20519;-49
2023/11/08 09:16:46;;;;;;;7.85;3.03;;;;;;;14.04;66.50;101146.94;5012788;28;20030;-47
2023/11/08 09:19:11;;;;;;;6.80;2.90;;;;;;;13.88;67.22;101155.63;5013397;28;20037;-49
2023/11/08 09:21:37;;;;;;;9.05;3.30;;;;;;;14.04;67.25;101149.56;5012697;28;20026;-47
2023/11/08 09:24:06;;;;;;;8.75;3.40;;;;;;;13.98;67.44;101147.81;5013144;28;20034;-44
2023/11/08 09:26:40;;;;;;;8.32;3.10;;;;;;;14.00;67.22;101145.19;5012214;28;20034;-48
2023/11/08 09:29:05;;;;;;;11.10;3.60;;;;;;;14.04;67.81;101145.22;5013167;28;20044;-47
2023/11/08 09:31:31;;;;;;;14.05;3.90;;;;;;;14.16;67.73;101147.88;5013179;28;20026;-49
2023/11/08 09:33:56;;;;;;;11.68;3.55;;;;;;;13.90;68.33;101146.94;5013445;28;20408;-44
2023/11/08 09:36:25;;;;;;;11.52;3.60;;;;;;;13.93;68.39;101139.06;5013107;28;20037;-50
2023/11/08 09:38:51;;;;;;;7.93;3.40;;;;;;;14.23;67.69;101140.91;5012025;28;20053;-48
2023/11/08 09:41:18;;;;;;;10.43;3.60;;;;;;;14.38;67.14;101142.72;5012421;28;20093;-46
2023/11/08 09:43:44;;;;;;;12.45;3.83;;;;;;;14.30;67.21;101140.06;5012122;28;20060;-46
2023/11/08 09:46:12;;;;;;;8.25;3.53;;;;;;;14.55;66.54;101139.25;5011853;28;20042;-48
2023/11/08 09:48:38;;;;;;;13.52;3.55;;;;;;;14.41;66.54;101140.09;5011562;28;20038;-46
2023/11/08 09:51:04;;;;;;;10.32;3.47;;;;;;;14.24;65.83;101132.16;5012304;28;20059;-46
2023/11/08 09:53:30;;;;;;;8.27;3.50;;;;;;;13.89;66.60;101123.31;5011485;28;20042;-47
2023/11/08 09:55:58;;;;;;;11.18;3.50;;;;;;;14.09;65.96;101127.75;5012270;28;20448;-48
2023/11/08 09:58:24;;;;;;;12.95;3.60;;;;;;;13.73;65.99;101124.97;5011411;28;20042;-47
2023/11/08 10:00:53;;;;;;;11.48;3.20;;;;;;;14.03;65.70;101130.34;5012038;28;20161;-47
2023/11/08 10:03:22;;;;;;;11.18;3.70;;;;;;;14.18;64.58;101119.91;5011377;28;20088;-45
2023/11/08 10:05:48;;;;;;;8.75;3.17;;;;;;;14.22;64.56;101119.03;5011645;28;20467;-49
2023/11/08 10:08:13;;;;;;;8.60;2.92;;;;;;;14.23;64.38;101120.81;4993757;28;20479;-48
2023/11/08 10:10:42;;;;;;;11.13;3.50;;;;;;;14.10;64.69;101113.78;5011631;28;20033;-47
2023/11/08 10:13:08;;;;;;;13.68;3.53;;;;;;;14.56;63.22;101113.91;5011607;28;20133;-49
2023/11/08 10:15:33;;;;;;;9.18;3.33;;;;;;;14.56;63.07;101106.91;5011185;28;20113;-45
2023/11/08 10:17:59;;;;;;;10.10;2.88;;;;;;;14.35;63.28;101105.94;5011715;28;20038;-44
2023/11/08 10:20:35;;;;;;;12.23;3.05;;;;;;;14.66;62.77;101096.41;5011596;28;20374;-46
2023/11/08 10:23:01;;;;;;;8.23;2.78;;;;;;;14.46;62.98;101093.75;5011748;28;20501;-46
2023/11/08 10:25:28;;;;;;;9.73;2.90;;;;;;;14.45;62.93;101097.28;5010881;28;20072;-47
2023/11/08 10:28:07;;;;;;;10.80;3.15;;;;;;;14.35;63.28;101098.97;5010235;28;20404;-48
2023/11/08 10:30:38;;;;;;;9.23;3.03;;;;;;;14.19;63.42;101084.09;5011298;28;20519;-47
2023/11/08 10:33:11;;;;;;;10.32;3.00;;;;;;;14.67;62.08;101078.03;5010920;28;20049;-49
2023/11/08 10:35:46;;;;;;;9.52;3.03;;;;;;;14.63;62.08;101091.16;5011256;28;20504;-51
2023/11/08 10:38:11;;;;;;;;;;;;;;;14.58;61.65;101086.78;5011322;28;20114;-46
2023/11/08 10:40:37;;;;;;;12.85;3.22;;;;;;;14.62;61.72;101079.78;5011262;28;20008;-47
2023/11/08 10:43:04;;;;;;;13.10;3.00;;;;;;;14.76;61.15;101053.56;5010951;28;20030;-45
2023/11/08 10:45:32;;;;;;;8.10;3.00;;;;;;;14.83;61.41;101066.66;5011038;28;20112;-46
2023/11/08 10:47:58;;;;;;;14.32;3.30;;;;;;;14.92;61.30;101065.78;5010778;28;20510;-47
2023/11/08 10:50:23;;;;;;;12.38;3.10;;;;;;;14.70;61.18;101066.69;5011066;28;20125;-45
2023/11/08 10:52:49;;;;;;;10.27;2.90;;;;;;;14.77;61.33;101065.78;5011179;28;20030;-46
2023/11/08 10:55:15;;;;;;;13.15;3.20;;;;;;;14.88;60.79;101062.25;5010530;28;20566;-50
2023/11/08 10:57:49;;;;;;;10.82;3.33;;;;;;;14.63;61.31;101057.06;5010807;28;20061;-44
2023/11/08 11:00:20;;;;;;;11.93;3.28;;;;;;;14.83;60.94;101043.03;5010329;28;20041;-45
2023/11/08 11:02:53;;;;;;;9.82;2.88;;;;;;;14.97;60.28;101038.63;5010933;28;20234;-45
2023/11/08 11:05:23;;;;;;;10.13;3.03;;;;;;;15.02;59.81;101042.13;5010544;28;20064;-48
2023/11/08 11:07:50;;;;;;;8.68;2.90;;;;;;;15.06;60.03;101037.75;5011274;28;20408;-48
2023/11/08 11:10:17;;;;;;;8.20;2.80;;;;;;;15.08;60.41;101035.97;5011229;28;20326;-47
2023/11/08 11:13:11;;;;;;;9.63;2.88;;;;;;;14.68;60.60;101029.06;5011205;28;20117;-46
2023/11/08 11:16:03;;;;;;;14.05;3.42;;;;;;;14.03;63.00;101025.47;5011470;28;20571;-49
2023/11/08 11:18:34;;;;;;;10.63;3.05;;;;;;;14.09;63.48;101029.88;5014078;28;20072;-49